createdAt,value
2023-03-30T00:01:11.778Z,100406.72
2023-03-30T00:03:39.420Z,100405.88
2023-03-30T00:06:07.310Z,100402.44
2023-03-30T00:08:33.885Z,100402.44
2023-03-30T00:11:02.530Z,100394.66
2023-03-30T00:13:29.989Z,100393.66
2023-03-30T00:15:56.333Z,100392.00
2023-03-30T00:18:22.600Z,100388.50
2023-03-30T00:20:49.758Z,100386.75
2023-03-30T00:23:16.472Z,100376.31
2023-03-30T00:25:43.227Z,100379.66
2023-03-30T00:28:09.526Z,100381.50
2023-03-30T00:30:37.016Z,100379.66
2023-03-30T00:33:03.937Z,100375.25
2023-03-30T00:35:30.589Z,100365.72
2023-03-30T00:38:01.454Z,100354.56
2023-03-30T00:40:29.119Z,100353.81
2023-03-30T00:43:00.656Z,100348.69
2023-03-30T00:45:29.804Z,100348.69
2023-03-30T00:47:58.818Z,100335.72
2023-03-30T00:50:48.295Z,100333.84
2023-03-30T00:53:24.953Z,100332.88
2023-03-30T00:55:53.778Z,100316.50
2023-03-30T00:58:22.397Z,100320.94
2023-03-30T01:00:48.998Z,100309.75
2023-03-30T01:03:30.416Z,100298.53
2023-03-30T01:05:59.768Z,100298.47
2023-03-30T01:08:32.215Z,100291.47
2023-03-30T01:11:01.450Z,100284.53
2023-03-30T01:13:30.245Z,100274.13
2023-03-30T01:16:15.311Z,100270.75
2023-03-30T01:18:54.956Z,100259.50
2023-03-30T01:21:42.836Z,100271.53
2023-03-30T01:24:53.199Z,100253.41
2023-03-30T01:28:04.329Z,100247.34
2023-03-30T01:30:55.732Z,100240.34
2023-03-30T01:34:01.000Z,100239.34
2023-03-30T01:36:59.683Z,100237.56
2023-03-30T01:39:52.487Z,100230.75
2023-03-30T01:42:48.563Z,100226.38
2023-03-30T01:45:39.224Z,100232.44
2023-03-30T01:48:14.233Z,100226.38
2023-03-30T01:50:43.817Z,100217.56
2023-03-30T01:53:15.185Z,100215.94
2023-03-30T01:55:47.253Z,100202.19
2023-03-30T01:58:23.362Z,100208.09
2023-03-30T02:00:51.136Z,100206.34
2023-03-30T02:03:22.897Z,100208.09
2023-03-30T02:05:53.648Z,100205.47
2023-03-30T02:08:25.901Z,100206.34
2023-03-30T02:10:54.811Z,100195.84
2023-03-30T02:13:23.216Z,100174.19
2023-03-30T02:15:56.835Z,100175.13
2023-03-30T02:18:23.332Z,100180.22
2023-03-30T02:20:49.753Z,100174.16
2023-03-30T02:23:22.296Z,100163.03
2023-03-30T02:25:49.365Z,100156.91
2023-03-30T02:28:16.561Z,100142.25
2023-03-30T02:30:45.299Z,100151.66
2023-03-30T02:33:26.351Z,100148.16
2023-03-30T02:36:24.183Z,100139.69
2023-03-30T02:39:01.264Z,100115.59
2023-03-30T02:41:49.361Z,100115.50
2023-03-30T02:44:37.225Z,100112.91
2023-03-30T02:47:36.826Z,100116.59
2023-03-30T02:50:14.774Z,100103.44
2023-03-30T02:52:46.651Z,100105.31
2023-03-30T02:55:20.578Z,100101.69
2023-03-30T02:57:55.714Z,100102.66
2023-03-30T03:00:28.299Z,100103.63
2023-03-30T03:03:00.171Z,100099.13
2023-03-30T03:05:27.488Z,100091.47
2023-03-30T03:07:54.660Z,100087.97
2023-03-30T03:10:21.031Z,100077.53
2023-03-30T03:12:50.735Z,100073.94
2023-03-30T03:15:17.063Z,100062.84
2023-03-30T03:17:45.129Z,100054.06
2023-03-30T03:20:11.651Z,100054.19
2023-03-30T03:22:37.931Z,100055.81
2023-03-30T03:25:05.720Z,100051.47
2023-03-30T03:27:32.066Z,100041.09
2023-03-30T03:29:58.754Z,100035.88
2023-03-30T03:32:25.098Z,100030.75
2023-03-30T03:34:51.397Z,100027.28
2023-03-30T03:37:17.687Z,100021.19
2023-03-30T03:39:44.087Z,100015.09
2023-03-30T03:42:11.364Z,100010.81
2023-03-30T03:44:38.110Z,100006.56
2023-03-30T03:47:04.519Z,100003.22
2023-03-30T03:49:31.082Z,99997.13
2023-03-30T03:51:57.431Z,99992.00
2023-03-30T03:54:23.802Z,99992.03
2023-03-30T03:56:51.814Z,99991.94
2023-03-30T03:59:18.190Z,100005.03
2023-03-30T04:01:44.550Z,99999.00
2023-03-30T04:04:10.873Z,99992.19
2023-03-30T04:06:37.276Z,99979.47
2023-03-30T04:09:03.653Z,99978.56
2023-03-30T04:11:30.012Z,99982.84
2023-03-30T04:13:56.545Z,99976.81
2023-03-30T04:16:22.897Z,99968.13
2023-03-30T04:18:49.284Z,99963.88
2023-03-30T04:21:17.617Z,99960.41
2023-03-30T04:23:49.994Z,99959.59
2023-03-30T04:26:17.345Z,99952.69
2023-03-30T04:28:43.676Z,99949.06
2023-03-30T04:31:10.965Z,99936.97
2023-03-30T04:33:41.164Z,99944.03
2023-03-30T04:36:07.862Z,99948.22
2023-03-30T04:38:37.178Z,99943.94
2023-03-30T04:41:04.452Z,99954.16
2023-03-30T04:43:31.274Z,99942.97
2023-03-30T04:45:57.646Z,99933.28
2023-03-30T04:48:24.263Z,99931.69
2023-03-30T04:50:51.608Z,99937.84
2023-03-30T04:53:18.999Z,99925.59
2023-03-30T04:55:49.947Z,99915.19
2023-03-30T04:58:17.035Z,99905.78
2023-03-30T05:00:43.348Z,99904.16
2023-03-30T05:03:10.092Z,99906.69
2023-03-30T05:05:36.549Z,99905.78
2023-03-30T05:08:02.965Z,99906.59
2023-03-30T05:10:29.303Z,99913.44
2023-03-30T05:12:56.499Z,99901.41
2023-03-30T05:15:22.868Z,99887.59
2023-03-30T05:17:49.461Z,99897.81
2023-03-30T05:20:15.973Z,99893.63
2023-03-30T05:22:42.382Z,99891.75
2023-03-30T05:25:09.064Z,99890.97
2023-03-30T05:27:35.749Z,99883.09
2023-03-30T05:30:02.104Z,99880.50
2023-03-30T05:32:28.689Z,99886.34
2023-03-30T05:34:55.311Z,99884.63
2023-03-30T05:37:21.729Z,99890.59
2023-03-30T05:39:48.427Z,99882.78
2023-03-30T05:42:14.777Z,99890.44
2023-03-30T05:44:41.186Z,99886.00
2023-03-30T05:47:07.807Z,99876.56
2023-03-30T05:49:34.091Z,99884.31
2023-03-30T05:52:01.043Z,99883.28
2023-03-30T05:54:27.842Z,99877.25
2023-03-30T05:56:54.316Z,99875.41
2023-03-30T05:59:21.659Z,99890.69
2023-03-30T06:01:48.172Z,99890.56
2023-03-30T06:04:16.230Z,99899.25
2023-03-30T06:06:43.133Z,99908.75
2023-03-30T06:09:10.118Z,99904.53
2023-03-30T06:11:36.476Z,99905.22
2023-03-30T06:14:02.962Z,99918.31
2023-03-30T06:16:29.388Z,99917.44
2023-03-30T06:18:55.780Z,99910.25
2023-03-30T06:21:22.187Z,99903.28
2023-03-30T06:23:48.954Z,99898.94
2023-03-30T06:26:15.600Z,99891.22
2023-03-30T06:28:42.065Z,99901.53
2023-03-30T06:31:10.607Z,99889.38
2023-03-30T06:33:38.341Z,99887.53
2023-03-30T06:36:11.421Z,99875.34
2023-03-30T06:38:38.214Z,99878.66
2023-03-30T06:41:08.103Z,99862.97
2023-03-30T06:43:34.481Z,99870.66
2023-03-30T06:46:00.887Z,99878.28
2023-03-30T06:48:27.344Z,99879.94
2023-03-30T06:50:54.566Z,99873.84
2023-03-30T06:53:22.503Z,99867.75
2023-03-30T06:55:53.596Z,99866.53
2023-03-30T06:58:20.010Z,99867.06
2023-03-30T07:00:46.584Z,99878.91
2023-03-30T07:03:12.930Z,99878.09
2023-03-30T07:05:39.280Z,99877.16
2023-03-30T07:08:07.593Z,99876.72
2023-03-30T07:10:34.009Z,99869.75
2023-03-30T07:13:00.491Z,99866.09
2023-03-30T07:15:27.232Z,99862.25
2023-03-30T07:17:53.645Z,99854.72
2023-03-30T07:20:20.410Z,99863.09
2023-03-30T07:22:46.697Z,99870.06
2023-03-30T07:25:13.606Z,99865.66
2023-03-30T07:27:40.856Z,99866.59
2023-03-30T07:30:20.592Z,99856.84
2023-03-30T07:32:50.112Z,99855.81
2023-03-30T07:35:16.808Z,99860.16
2023-03-30T07:37:43.149Z,99859.66
2023-03-30T07:40:09.952Z,99871.66
2023-03-30T07:42:36.937Z,99872.63
2023-03-30T07:45:04.905Z,99874.16
2023-03-30T07:47:31.406Z,99867.13
2023-03-30T07:49:57.818Z,99869.38
2023-03-30T07:52:24.173Z,99855.28
2023-03-30T07:54:50.546Z,99853.34
2023-03-30T07:57:17.389Z,99860.06
2023-03-30T07:59:43.804Z,99859.03
2023-03-30T08:02:12.091Z,99865.94
2023-03-30T08:04:38.518Z,99865.28
2023-03-30T08:07:04.931Z,99868.84
2023-03-30T08:09:31.367Z,99879.88
2023-03-30T08:11:57.861Z,99876.56
2023-03-30T08:14:26.381Z,99880.03
2023-03-30T08:16:53.873Z,99887.44
2023-03-30T08:19:21.246Z,99881.47
2023-03-30T08:21:47.508Z,99879.28
2023-03-30T08:24:13.871Z,99883.63
2023-03-30T08:26:40.145Z,99882.16
2023-03-30T08:29:07.069Z,99884.41
2023-03-30T08:31:34.256Z,99875.59
2023-03-30T08:34:00.617Z,99870.84
2023-03-30T08:36:26.992Z,99867.13
2023-03-30T08:38:54.782Z,99870.72
2023-03-30T08:41:30.095Z,99875.19
2023-03-30T08:44:40.250Z,99877.47
2023-03-30T08:47:13.072Z,99873.00
2023-03-30T08:49:46.589Z,99865.94
2023-03-30T08:52:22.810Z,99855.13
2023-03-30T08:54:51.943Z,99857.81
2023-03-30T08:57:52.461Z,99855.72
2023-03-30T09:00:32.598Z,99851.63
2023-03-30T09:03:10.711Z,99837.69
2023-03-30T09:05:44.033Z,99846.25
2023-03-30T09:08:18.438Z,99844.53
2023-03-30T09:10:49.829Z,99838.09
2023-03-30T09:13:20.597Z,99843.91
2023-03-30T09:15:54.720Z,99839.53
2023-03-30T09:18:31.454Z,99840.25
2023-03-30T09:21:03.479Z,99833.44
2023-03-30T09:23:31.662Z,99833.44
2023-03-30T09:26:02.689Z,99832.22
2023-03-30T09:28:38.053Z,99828.50
2023-03-30T09:31:14.293Z,99829.16
2023-03-30T09:33:51.943Z,99824.66
2023-03-30T09:36:27.542Z,99827.94
2023-03-30T09:38:54.004Z,99825.63
2023-03-30T09:41:56.773Z,99821.28
2023-03-30T09:44:29.916Z,99830.25
2023-03-30T09:46:58.959Z,99822.69
2023-03-30T09:49:29.606Z,99828.63
2023-03-30T09:52:02.438Z,99822.88
2023-03-30T09:54:41.508Z,99829.44
2023-03-30T09:57:26.940Z,99824.47
2023-03-30T09:59:55.744Z,99831.56
2023-03-30T10:02:25.124Z,99831.91
2023-03-30T10:04:52.358Z,99835.81
2023-03-30T10:07:26.400Z,99836.09
2023-03-30T10:09:53.445Z,99830.00
2023-03-30T10:12:20.691Z,99830.97
2023-03-30T10:14:47.020Z,99825.88
2023-03-30T10:17:22.044Z,99819.19
2023-03-30T10:19:51.767Z,99811.09
2023-03-30T10:22:25.705Z,99808.53
2023-03-30T10:24:55.050Z,99810.22
2023-03-30T10:27:30.142Z,99804.00
2023-03-30T10:29:56.476Z,99806.75
2023-03-30T10:32:31.476Z,99792.97
2023-03-30T10:35:01.859Z,99798.69
2023-03-30T10:37:36.911Z,99796.44
2023-03-30T10:40:15.451Z,99786.59
2023-03-30T10:42:42.330Z,99788.53
2023-03-30T10:45:19.011Z,99783.94
2023-03-30T10:47:45.459Z,99787.63
2023-03-30T10:50:18.244Z,99783.31
2023-03-30T10:52:59.335Z,99779.91
2023-03-30T10:55:41.593Z,99771.06
2023-03-30T10:58:34.139Z,99778.84
2023-03-30T11:01:11.570Z,99782.59
2023-03-30T11:03:40.147Z,99774.78
2023-03-30T11:06:14.444Z,99770.72
2023-03-30T11:08:50.738Z,99765.63
2023-03-30T11:11:21.809Z,99766.22
2023-03-30T11:13:54.213Z,99768.00
2023-03-30T11:16:31.070Z,99757.47
2023-03-30T11:19:03.249Z,99763.25
2023-03-30T11:21:56.978Z,99784.66
2023-03-30T11:24:24.443Z,99792.78
2023-03-30T11:27:03.639Z,99799.66
2023-03-30T11:29:45.530Z,99806.44
2023-03-30T11:32:37.084Z,99802.56
2023-03-30T11:35:07.002Z,99787.28
2023-03-30T11:37:45.780Z,99776.41
2023-03-30T11:40:18.476Z,99780.03
2023-03-30T11:42:47.094Z,99767.84
2023-03-30T11:45:38.084Z,99758.13
2023-03-30T11:48:10.309Z,99754.41
2023-03-30T11:51:09.588Z,99765.16
2023-03-30T11:53:55.472Z,99749.78
2023-03-30T11:56:50.979Z,99751.25
2023-03-30T11:59:31.313Z,99739.38
2023-03-30T12:02:16.311Z,99749.34
2023-03-30T12:04:49.769Z,99733.13
2023-03-30T12:07:49.962Z,99741.41
2023-03-30T12:10:52.803Z,99748.31
2023-03-30T12:13:19.779Z,99734.78
2023-03-30T12:16:11.395Z,99744.13
2023-03-30T12:18:44.156Z,99761.34
2023-03-30T12:21:19.210Z,99772.75
2023-03-30T12:24:15.621Z,99793.41
2023-03-30T12:26:46.932Z,99814.16
2023-03-30T12:31:55.871Z,99861.25
2023-03-30T12:34:44.928Z,99871.94
2023-03-30T12:37:18.140Z,99872.75
2023-03-30T12:39:59.685Z,99871.41
2023-03-30T12:42:35.011Z,99881.53
2023-03-30T12:45:21.782Z,99888.03
2023-03-30T12:48:06.276Z,99891.66
2023-03-30T12:50:45.707Z,99884.81
2023-03-30T12:53:26.069Z,99890.63
2023-03-30T12:56:06.977Z,99887.34
2023-03-30T12:59:04.145Z,99886.72
2023-03-30T13:01:49.160Z,99887.06
2023-03-30T13:04:21.147Z,99886.78
2023-03-30T13:07:02.483Z,99886.91
2023-03-30T13:09:33.282Z,99881.25
2023-03-30T13:11:59.506Z,99880.78
2023-03-30T13:14:26.986Z,99875.41
2023-03-30T13:16:53.506Z,99876.44
2023-03-30T13:19:37.094Z,99880.16
2023-03-30T13:22:15.613Z,99862.78
2023-03-30T13:24:41.991Z,99864.09
2023-03-30T13:27:14.199Z,99869.34
2023-03-30T13:29:42.147Z,99844.31
2023-03-30T13:32:38.965Z,99861.13
2023-03-30T13:35:29.180Z,99844.34
2023-03-30T13:38:24.837Z,99836.06
2023-03-30T13:41:07.516Z,99839.19
2023-03-30T13:43:49.434Z,99849.63
2023-03-30T13:46:18.911Z,99850.06
2023-03-30T13:49:14.467Z,99856.22
2023-03-30T13:51:42.399Z,99848.97
2023-03-30T13:54:28.639Z,99846.25
2023-03-30T13:57:06.418Z,99861.72
2023-03-30T13:59:35.768Z,99848.59
2023-03-30T14:02:03.591Z,99838.94
2023-03-30T14:04:32.500Z,99858.41
2023-03-30T14:07:05.450Z,99847.13
2023-03-30T14:09:31.845Z,99841.75
2023-03-30T14:12:00.753Z,99842.81
2023-03-30T14:14:39.055Z,99845.56
2023-03-30T14:17:26.773Z,99846.69
2023-03-30T14:20:07.407Z,99846.63
2023-03-30T14:22:39.807Z,99830.72
2023-03-30T14:25:21.440Z,99837.91
2023-03-30T14:27:47.722Z,99848.31
2023-03-30T14:30:32.269Z,99846.56
2023-03-30T14:33:10.111Z,99842.03
2023-03-30T14:35:41.801Z,99853.47
2023-03-30T14:38:21.970Z,99850.38
2023-03-30T14:40:49.913Z,99826.59
2023-03-30T14:43:24.408Z,99852.84
2023-03-30T14:45:56.504Z,99845.13
2023-03-30T14:48:31.447Z,99849.63
2023-03-30T14:51:07.653Z,99850.22
2023-03-30T14:53:34.874Z,99841.84
2023-03-30T14:56:03.499Z,99850.00
2023-03-30T14:58:31.899Z,99845.59
2023-03-30T15:01:09.237Z,99843.41
2023-03-30T15:03:37.595Z,99843.41
2023-03-30T15:06:06.724Z,99848.84
2023-03-30T15:08:39.148Z,99837.47
2023-03-30T15:11:12.281Z,99830.44
2023-03-30T15:13:47.091Z,99833.81
2023-03-30T15:16:19.731Z,99845.41
2023-03-30T15:19:02.355Z,99849.34
2023-03-30T15:21:30.845Z,99845.72
2023-03-30T15:23:58.497Z,99852.59
2023-03-30T15:26:26.924Z,99843.94
2023-03-30T15:28:56.927Z,99838.84
2023-03-30T15:31:25.917Z,99842.44
2023-03-30T15:33:54.638Z,99855.06
2023-03-30T15:36:26.264Z,99867.28
2023-03-30T15:38:55.154Z,99886.34
2023-03-30T15:41:24.058Z,99889.44
2023-03-30T15:44:14.931Z,99898.94
2023-03-30T15:46:41.430Z,99893.94
2023-03-30T15:49:13.244Z,99904.38
2023-03-30T15:51:43.943Z,99913.09
2023-03-30T15:54:15.006Z,99907.88
2023-03-30T15:57:08.275Z,99923.59
2023-03-30T15:59:41.581Z,99911.13
2023-03-30T16:02:24.260Z,99910.34
2023-03-30T16:04:51.380Z,99906.06
2023-03-30T16:08:48.592Z,99908.91
2023-03-30T16:11:16.800Z,99911.22
2023-03-30T16:13:48.884Z,99910.44
2023-03-30T16:16:18.326Z,99908.78
2023-03-30T16:18:44.934Z,99900.97
2023-03-30T16:21:12.212Z,99903.47
2023-03-30T16:23:38.824Z,99905.94
2023-03-30T16:26:07.965Z,99904.50
2023-03-30T16:28:34.285Z,99911.00
2023-03-30T16:31:06.124Z,99906.00
2023-03-30T16:33:32.704Z,99910.25
2023-03-30T16:35:59.067Z,99908.47
2023-03-30T16:38:25.464Z,99906.81
2023-03-30T16:40:55.821Z,99894.38
2023-03-30T16:43:22.157Z,99904.03
2023-03-30T16:45:51.113Z,99898.81
2023-03-30T16:48:17.454Z,99907.22
2023-03-30T16:50:54.672Z,99906.91
2023-03-30T16:53:20.958Z,99900.97
2023-03-30T16:55:47.540Z,99901.88
2023-03-30T16:58:14.955Z,99901.69
2023-03-30T17:00:47.587Z,99901.81
2023-03-30T17:03:14.582Z,99910.56
2023-03-30T17:05:41.977Z,99912.56
2023-03-30T17:08:21.030Z,99917.16
2023-03-30T17:10:48.054Z,99921.34
2023-03-30T17:13:14.600Z,99915.25
2023-03-30T17:15:41.125Z,99920.56
2023-03-30T17:18:17.713Z,99923.06
2023-03-30T17:20:50.949Z,99922.16
2023-03-30T17:23:18.456Z,99914.28
2023-03-30T17:25:47.498Z,99919.28
2023-03-30T17:28:30.064Z,99911.56
2023-03-30T17:31:02.681Z,99913.59
2023-03-30T17:33:30.453Z,99911.00
2023-03-30T17:36:02.627Z,99918.28
2023-03-30T17:38:29.729Z,99920.97
2023-03-30T17:40:56.345Z,99914.09
2023-03-30T17:43:23.126Z,99920.78
2023-03-30T17:45:49.760Z,99920.81
2023-03-30T17:48:18.747Z,99919.03
2023-03-30T17:50:47.685Z,99925.69
2023-03-30T17:53:16.625Z,99923.84
2023-03-30T17:55:48.976Z,99925.69
2023-03-30T17:58:34.107Z,99920.50
2023-03-30T18:01:03.433Z,99937.91
2023-03-30T18:03:30.337Z,99949.91
2023-03-30T18:05:58.155Z,99940.69
2023-03-30T18:08:25.586Z,99941.03
2023-03-30T18:10:54.143Z,99941.97
2023-03-30T18:13:21.847Z,99948.47
2023-03-30T18:15:49.975Z,99952.00
2023-03-30T18:18:22.725Z,99949.31
2023-03-30T18:20:51.424Z,99950.38
2023-03-30T18:23:18.653Z,99948.53
2023-03-30T18:25:45.481Z,99945.16
2023-03-30T18:28:26.132Z,99938.25
2023-03-30T18:30:55.146Z,99943.34
2023-03-30T18:33:22.234Z,99945.94
2023-03-30T18:35:51.204Z,99960.75
2023-03-30T18:38:20.151Z,99961.72
2023-03-30T18:40:58.567Z,99958.44
2023-03-30T18:43:26.268Z,99954.91
2023-03-30T18:45:52.780Z,99961.91
2023-03-30T18:48:21.190Z,99972.50
2023-03-30T18:50:50.650Z,99970.66
2023-03-30T18:53:22.208Z,99967.91
2023-03-30T18:55:56.882Z,99968.75
2023-03-30T18:58:27.019Z,99965.50
2023-03-30T19:00:54.871Z,99963.84
2023-03-30T19:03:22.860Z,99961.44
2023-03-30T19:05:50.446Z,99958.06
2023-03-30T19:08:22.530Z,99957.34
2023-03-30T19:10:51.391Z,99947.00
2023-03-30T19:13:19.841Z,99957.31
2023-03-30T19:15:47.656Z,99965.13
2023-03-30T19:18:14.970Z,99955.69
2023-03-30T19:20:43.373Z,99973.06
2023-03-30T19:23:15.572Z,99975.75
2023-03-30T19:25:43.223Z,99966.19
2023-03-30T19:28:37.509Z,99962.72
2023-03-30T19:31:13.168Z,99967.84
2023-03-30T19:33:40.390Z,99962.72
2023-03-30T19:36:08.384Z,99963.69
2023-03-30T19:38:35.233Z,99951.50
2023-03-30T19:41:04.018Z,99954.00
2023-03-30T19:43:30.739Z,99952.28
2023-03-30T19:45:57.075Z,99953.16
2023-03-30T19:48:23.391Z,99949.81
2023-03-30T19:50:50.567Z,99949.06
2023-03-30T19:53:17.313Z,99956.00
2023-03-30T19:55:45.924Z,99959.41
2023-03-30T19:58:12.866Z,99950.63
2023-03-30T20:00:43.623Z,99944.84
2023-03-30T20:03:12.165Z,99943.13
2023-03-30T20:05:39.223Z,99943.84
2023-03-30T20:08:13.699Z,99949.09
2023-03-30T20:10:49.467Z,99938.66
2023-03-30T20:13:16.902Z,99942.00
2023-03-30T20:15:45.233Z,99937.91
2023-03-30T20:18:11.688Z,99930.91
2023-03-30T20:20:38.306Z,99932.75
2023-03-30T20:23:04.574Z,99933.44
2023-03-30T20:25:30.929Z,99922.94
2023-03-30T20:27:57.323Z,99924.53
2023-03-30T20:30:23.663Z,99923.66
2023-03-30T20:33:06.856Z,99930.56
2023-03-30T20:35:38.023Z,99927.03
2023-03-30T20:38:08.566Z,99935.03
2023-03-30T20:40:35.098Z,99931.47
2023-03-30T20:43:10.520Z,99930.81
2023-03-30T20:45:46.002Z,99928.06
2023-03-30T20:48:28.746Z,99937.63
2023-03-30T20:50:58.026Z,99929.91
2023-03-30T20:53:25.760Z,99937.78
2023-03-30T20:55:52.190Z,99928.34
2023-03-30T20:58:18.535Z,99931.88
2023-03-30T21:00:44.839Z,99926.66
2023-03-30T21:03:13.918Z,99930.16
2023-03-30T21:05:40.527Z,99925.88
2023-03-30T21:08:09.773Z,99915.66
2023-03-30T21:10:36.289Z,99912.28
2023-03-30T21:13:03.380Z,99919.22
2023-03-30T21:15:30.124Z,99929.59
2023-03-30T21:17:56.555Z,99919.31
2023-03-30T21:20:22.926Z,99935.66
2023-03-30T21:22:50.753Z,99943.47
2023-03-30T21:25:17.711Z,99939.09
2023-03-30T21:27:44.941Z,99926.06
2023-03-30T21:30:13.307Z,99927.63
2023-03-30T21:32:39.814Z,99931.13
2023-03-30T21:35:06.621Z,99927.75
2023-03-30T21:37:32.956Z,99920.84
2023-03-30T21:39:59.302Z,99930.41
2023-03-30T21:42:25.607Z,99920.84
2023-03-30T21:44:51.954Z,99913.13
2023-03-30T21:47:18.383Z,99919.22
2023-03-30T21:49:44.641Z,99916.75
2023-03-30T21:52:10.946Z,99909.81
2023-03-30T21:54:37.273Z,99912.31
2023-03-30T21:57:04.495Z,99903.78
2023-03-30T21:59:30.914Z,99914.97
2023-03-30T22:01:57.353Z,99910.63
2023-03-30T22:04:23.648Z,99905.53
2023-03-30T22:06:49.926Z,99908.22
2023-03-30T22:09:16.363Z,99896.13
2023-03-30T22:11:43.137Z,99895.00
2023-03-30T22:14:09.511Z,99901.25
2023-03-30T22:16:36.814Z,99894.19
2023-03-30T22:19:04.332Z,99899.50
2023-03-30T22:21:39.571Z,99897.69
2023-03-30T22:24:07.465Z,99890.81
2023-03-30T22:26:34.679Z,99888.06
2023-03-30T22:29:01.057Z,99890.56
2023-03-30T22:31:28.248Z,99888.16
2023-03-30T22:33:56.179Z,99885.69
2023-03-30T22:36:30.952Z,99897.88
2023-03-30T22:38:58.700Z,99890.75
2023-03-30T22:41:26.763Z,99894.31
2023-03-30T22:43:55.966Z,99888.47
2023-03-30T22:46:23.639Z,99894.44
2023-03-30T22:48:51.479Z,99888.31
2023-03-30T22:51:27.555Z,99879.66
2023-03-30T22:53:59.079Z,99881.34
2023-03-30T22:56:27.106Z,99869.94
2023-03-30T22:58:53.432Z,99877.06
2023-03-30T23:01:21.418Z,99890.16
2023-03-30T23:03:47.895Z,99887.66
2023-03-30T23:06:14.559Z,99888.41
2023-03-30T23:08:41.050Z,99889.25
2023-03-30T23:11:08.185Z,99870.94
2023-03-30T23:13:38.223Z,99877.22
2023-03-30T23:16:06.295Z,99875.41
2023-03-30T23:18:33.777Z,99862.31
2023-03-30T23:21:05.781Z,99864.91
2023-03-30T23:23:33.311Z,99871.03
2023-03-30T23:26:02.677Z,99865.81
2023-03-30T23:28:31.357Z,99865.00
2023-03-30T23:30:57.761Z,99859.63
2023-03-30T23:33:24.702Z,99863.84
2023-03-30T23:35:51.194Z,99857.72
2023-03-30T23:38:17.693Z,99858.69
2023-03-30T23:40:44.048Z,99861.34
2023-03-30T23:43:10.989Z,99862.94
2023-03-30T23:45:37.279Z,99855.31
2023-03-30T23:48:03.733Z,99853.00
2023-03-30T23:50:32.904Z,99841.19
2023-03-30T23:52:59.252Z,99850.75
2023-03-30T23:55:25.652Z,99857.81
2023-03-30T23:57:52.003Z,99857.84
